createdAt,value
2019-02-27T00:00:04.448Z,74.80
2019-02-27T00:01:02.801Z,76.00
2019-02-27T00:02:03.064Z,73.60
2019-02-27T00:03:03.324Z,74.90
2019-02-27T00:04:03.563Z,76.20
2019-02-27T00:05:05.901Z,77.50
2019-02-27T00:06:04.275Z,77.70
2019-02-27T00:07:04.391Z,74.80
2019-02-27T00:08:04.653Z,76.70
2019-02-27T00:09:04.913Z,74.80
2019-02-27T00:10:06.186Z,78.50
2019-02-27T00:11:05.459Z,79.00
2019-02-27T00:12:05.708Z,76.80
2019-02-27T00:13:05.979Z,75.20
2019-02-27T00:14:06.345Z,76.40
2019-02-27T00:15:06.495Z,76.40
2019-02-27T00:16:10.795Z,79.30
2019-02-27T00:17:08.225Z,75.70
2019-02-27T00:18:07.330Z,76.10
2019-02-27T00:19:07.523Z,75.00
2019-02-27T00:20:07.805Z,77.00
2019-02-27T00:21:10.489Z,78.30
2019-02-27T00:22:08.384Z,75.70
2019-02-27T00:23:08.583Z,74.90
2019-02-27T00:24:08.832Z,72.60
2019-02-27T00:25:09.078Z,72.40
2019-02-27T00:26:09.562Z,72.60
2019-02-27T00:27:09.614Z,73.40
2019-02-27T00:28:09.896Z,73.10
2019-02-27T00:29:10.139Z,70.30
2019-02-27T00:30:10.442Z,71.10
2019-02-27T00:31:11.435Z,73.40
2019-02-27T00:32:10.907Z,71.90
2019-02-27T00:33:11.185Z,71.40
2019-02-27T00:34:11.426Z,71.50
2019-02-27T00:35:11.691Z,77.50
2019-02-27T00:36:12.404Z,76.60
2019-02-27T00:37:12.204Z,78.60
2019-02-27T00:38:12.522Z,75.50
2019-02-27T00:39:12.781Z,76.50
2019-02-27T00:40:12.996Z,74.20
2019-02-27T00:41:13.283Z,73.10
2019-02-27T00:42:13.501Z,74.30
2019-02-27T00:43:13.797Z,75.00
2019-02-27T00:44:14.039Z,76.50
2019-02-27T00:45:14.301Z,81.60
2019-02-27T00:46:14.606Z,77.50
2019-02-27T00:47:17.007Z,80.10
2019-02-27T00:48:15.128Z,78.30
2019-02-27T00:49:15.371Z,77.40
2019-02-27T00:50:15.633Z,73.90
2019-02-27T00:51:15.929Z,75.60
2019-02-27T00:52:18.079Z,79.50
2019-02-27T00:53:16.418Z,80.70
2019-02-27T00:54:16.682Z,82.50
2019-02-27T00:55:17.058Z,81.20
2019-02-27T00:56:17.225Z,81.30
2019-02-27T00:57:20.547Z,78.90
2019-02-27T00:58:17.717Z,77.10
2019-02-27T00:59:17.968Z,75.60
2019-02-27T01:00:18.241Z,77.00
2019-02-27T01:01:18.535Z,78.10
2019-02-27T01:02:19.983Z,78.20
2019-02-27T01:03:19.042Z,75.30
2019-02-27T01:04:19.247Z,77.30
2019-02-27T01:05:19.533Z,78.40
2019-02-27T01:06:19.827Z,79.00
2019-02-27T01:07:20.708Z,77.00
2019-02-27T01:08:20.322Z,76.80
2019-02-27T01:09:20.580Z,74.50
2019-02-27T01:10:20.817Z,78.70
2019-02-27T01:11:21.160Z,80.40
2019-02-27T01:12:22.907Z,79.20
2019-02-27T01:13:21.612Z,80.00
2019-02-27T01:14:21.887Z,81.20
2019-02-27T01:15:22.133Z,79.60
2019-02-27T01:16:22.444Z,80.80
2019-02-27T01:17:23.878Z,82.30
2019-02-27T01:18:22.947Z,82.10
2019-02-27T01:19:23.263Z,83.40
2019-02-27T01:20:23.528Z,80.60
2019-02-27T01:21:23.771Z,84.60
2019-02-27T01:22:24.011Z,81.80
2019-02-27T01:23:24.271Z,85.20
2019-02-27T01:24:24.551Z,85.40
2019-02-27T01:25:24.803Z,84.40
2019-02-27T01:26:25.098Z,80.20
2019-02-27T01:27:25.303Z,79.10
2019-02-27T01:28:25.693Z,79.40
2019-02-27T01:29:25.855Z,82.20
2019-02-27T01:30:26.095Z,79.40
2019-02-27T01:31:26.369Z,82.70
2019-02-27T01:32:28.864Z,81.40
2019-02-27T01:33:26.888Z,79.90
2019-02-27T01:34:27.166Z,83.40
2019-02-27T01:35:27.414Z,83.00
2019-02-27T01:36:27.773Z,77.70
2019-02-27T01:37:31.298Z,81.40
2019-02-27T01:38:28.182Z,82.00
2019-02-27T01:39:28.463Z,79.70
2019-02-27T01:40:28.710Z,82.30
2019-02-27T01:41:28.985Z,77.40
2019-02-27T01:42:32.184Z,77.80
2019-02-27T01:43:29.475Z,81.70
2019-02-27T01:44:29.780Z,81.50
2019-02-27T01:45:29.996Z,83.30
2019-02-27T01:46:30.282Z,85.50
2019-02-27T01:47:30.543Z,87.20
2019-02-27T01:48:30.786Z,89.70
2019-02-27T01:49:31.058Z,90.10
2019-02-27T01:50:31.307Z,90.70
2019-02-27T01:51:31.597Z,95.10
2019-02-27T01:52:33.940Z,97.10
2019-02-27T01:53:32.107Z,93.90
2019-02-27T01:54:32.391Z,95.90
2019-02-27T01:55:32.622Z,90.80
2019-02-27T01:56:32.924Z,96.20
2019-02-27T01:57:34.096Z,94.50
2019-02-27T01:58:33.419Z,94.80
2019-02-27T01:59:33.708Z,93.90
2019-02-27T02:00:33.966Z,100.40
2019-02-27T02:01:34.317Z,101.00
2019-02-27T02:02:34.882Z,98.20
2019-02-27T02:03:34.723Z,97.30
2019-02-27T02:04:35.003Z,96.90
2019-02-27T02:05:35.248Z,93.10
2019-02-27T02:06:35.528Z,95.40
2019-02-27T02:07:39.871Z,95.60
2019-02-27T02:08:36.046Z,96.70
2019-02-27T02:09:36.473Z,96.60
2019-02-27T02:10:36.577Z,98.10
2019-02-27T02:11:36.837Z,97.60
2019-02-27T02:12:39.086Z,98.50
2019-02-27T02:13:37.387Z,97.20
2019-02-27T02:14:37.667Z,95.70
2019-02-27T02:15:37.910Z,95.70
2019-02-27T02:16:38.179Z,92.40
2019-02-27T02:17:40.977Z,89.70
2019-02-27T02:18:38.698Z,91.30
2019-02-27T02:19:38.982Z,90.10
2019-02-27T02:20:39.222Z,90.50
2019-02-27T02:21:39.497Z,89.10
2019-02-27T02:22:41.280Z,91.00
2019-02-27T02:23:40.028Z,89.50
2019-02-27T02:24:40.329Z,91.00
2019-02-27T02:25:40.623Z,89.10
2019-02-27T02:26:40.820Z,88.60
2019-02-27T02:27:41.571Z,92.30
2019-02-27T02:28:41.323Z,88.10
2019-02-27T02:29:41.698Z,89.60
2019-02-27T02:30:41.876Z,90.40
2019-02-27T02:31:42.586Z,91.30
2019-02-27T02:32:42.424Z,89.60
2019-02-27T02:33:42.690Z,90.50
2019-02-27T02:34:42.961Z,93.90
2019-02-27T02:35:43.189Z,93.20
2019-02-27T02:36:43.458Z,93.80
2019-02-27T02:37:43.730Z,92.40
2019-02-27T02:38:43.972Z,91.10
2019-02-27T02:39:44.254Z,89.80
2019-02-27T02:40:44.479Z,88.70
2019-02-27T02:41:47.078Z,87.40
2019-02-27T02:42:45.147Z,86.70
2019-02-27T02:43:45.275Z,87.30
2019-02-27T02:44:45.543Z,86.30
2019-02-27T02:45:45.802Z,84.50
2019-02-27T02:46:46.335Z,84.30
2019-02-27T02:47:46.356Z,83.10
2019-02-27T02:48:46.598Z,85.10
2019-02-27T02:49:46.874Z,84.60
2019-02-27T02:50:47.227Z,84.10
2019-02-27T02:51:47.417Z,84.80
2019-02-27T02:52:47.652Z,84.60
2019-02-27T02:53:48.800Z,88.10
2019-02-27T02:54:48.169Z,86.30
2019-02-27T02:55:49.253Z,86.00
2019-02-27T02:56:48.716Z,86.80
2019-02-27T02:57:48.960Z,91.10
2019-02-27T02:58:49.273Z,84.50
2019-02-27T02:59:49.478Z,84.00
2019-02-27T03:00:49.693Z,83.40
2019-02-27T03:01:50.173Z,83.70
2019-02-27T03:02:50.255Z,89.50
2019-02-27T03:03:50.504Z,88.20
2019-02-27T03:04:50.783Z,91.70
2019-02-27T03:05:51.032Z,92.40
2019-02-27T03:06:51.394Z,97.30
2019-02-27T03:07:51.550Z,92.70
2019-02-27T03:08:55.010Z,94.90
2019-02-27T03:09:52.077Z,95.00
2019-02-27T03:10:52.536Z,91.60
2019-02-27T03:11:54.832Z,92.30
2019-02-27T03:12:52.894Z,90.00
2019-02-27T03:13:53.092Z,88.60
2019-02-27T03:14:54.171Z,90.60
2019-02-27T03:15:53.686Z,88.60
2019-02-27T03:16:53.912Z,89.10
2019-02-27T03:17:55.070Z,87.20
2019-02-27T03:18:54.441Z,87.50
2019-02-27T03:19:54.699Z,87.40
2019-02-27T03:20:54.992Z,88.40
2019-02-27T03:21:55.253Z,88.00
2019-02-27T03:22:55.561Z,87.00
2019-02-27T03:23:55.888Z,87.90
2019-02-27T03:24:56.066Z,90.90
2019-02-27T03:25:56.337Z,91.20
2019-02-27T03:26:56.600Z,91.30
2019-02-27T03:27:56.873Z,89.20
2019-02-27T03:28:57.130Z,88.10
2019-02-27T03:29:57.366Z,89.40
2019-02-27T03:30:57.687Z,86.00
2019-02-27T03:32:00.163Z,85.50
2019-02-27T03:32:58.202Z,87.30
2019-02-27T03:34:05.802Z,89.60
2019-02-27T03:34:59.691Z,84.50
2019-02-27T03:35:59.878Z,85.60
2019-02-27T03:36:59.220Z,86.60
2019-02-27T03:37:59.507Z,84.70
2019-02-27T03:39:00.167Z,83.70
2019-02-27T03:40:00.225Z,86.50
2019-02-27T03:41:00.279Z,81.00
2019-02-27T03:42:00.563Z,84.50
2019-02-27T03:43:00.840Z,83.70
2019-02-27T03:44:01.087Z,82.50
2019-02-27T03:45:01.318Z,83.00
2019-02-27T03:46:03.090Z,83.20
2019-02-27T03:47:01.831Z,83.60
2019-02-27T03:48:02.202Z,86.20
2019-02-27T03:49:03.569Z,83.50
2019-02-27T03:50:02.627Z,83.70
2019-02-27T03:51:02.903Z,82.30
2019-02-27T03:52:03.128Z,83.30
2019-02-27T03:53:03.428Z,84.70
2019-02-27T03:54:03.716Z,85.20
2019-02-27T03:55:03.947Z,83.10
2019-02-27T03:56:08.698Z,82.80
2019-02-27T03:57:05.488Z,87.60
2019-02-27T03:58:04.752Z,83.80
2019-02-27T03:59:06.065Z,82.60
2019-02-27T04:00:05.280Z,84.60
2019-02-27T04:01:05.539Z,81.70
2019-02-27T04:02:06.159Z,82.70
2019-02-27T04:03:06.074Z,85.10
2019-02-27T04:04:06.339Z,84.90
2019-02-27T04:05:07.375Z,82.60
2019-02-27T04:06:06.856Z,82.70
2019-02-27T04:07:07.107Z,81.00
2019-02-27T04:08:08.304Z,82.70
2019-02-27T04:09:07.628Z,82.90
2019-02-27T04:10:08.346Z,85.40
2019-02-27T04:11:08.174Z,82.20
2019-02-27T04:12:08.426Z,87.30
2019-02-27T04:13:08.834Z,85.80
2019-02-27T04:14:08.945Z,87.40
2019-02-27T04:15:09.237Z,83.30
2019-02-27T04:16:09.494Z,88.10
2019-02-27T04:17:09.741Z,88.70
2019-02-27T04:18:10.021Z,87.00
2019-02-27T04:19:10.248Z,86.70
2019-02-27T04:20:14.602Z,87.80
2019-02-27T04:21:10.894Z,89.40
2019-02-27T04:22:11.047Z,91.60
2019-02-27T04:23:12.434Z,91.10
2019-02-27T04:24:11.583Z,89.30
2019-02-27T04:25:11.831Z,87.60
2019-02-27T04:26:12.132Z,88.50
2019-02-27T04:27:12.381Z,90.40
2019-02-27T04:28:12.636Z,89.50
2019-02-27T04:29:12.952Z,88.00
2019-02-27T04:30:14.700Z,88.20
2019-02-27T04:31:13.436Z,91.70
2019-02-27T04:32:13.682Z,89.20
2019-02-27T04:33:13.956Z,89.70
2019-02-27T04:34:14.232Z,86.70
2019-02-27T04:35:14.479Z,88.40
2019-02-27T04:36:14.767Z,87.20
2019-02-27T04:37:15.026Z,88.10
2019-02-27T04:38:15.340Z,89.40
2019-02-27T04:39:15.540Z,88.40
2019-02-27T04:40:15.785Z,86.60
2019-02-27T04:41:17.807Z,88.40
2019-02-27T04:42:16.290Z,89.30
2019-02-27T04:43:16.568Z,87.50
2019-02-27T04:44:16.845Z,88.90
2019-02-27T04:45:17.096Z,88.70
2019-02-27T04:46:18.890Z,85.10
2019-02-27T04:47:17.616Z,88.00
2019-02-27T04:48:17.873Z,90.10
2019-02-27T04:49:18.379Z,90.00
2019-02-27T04:50:18.396Z,85.30
2019-02-27T04:51:18.672Z,83.10
2019-02-27T04:52:18.942Z,86.00
2019-02-27T04:53:19.160Z,83.70
2019-02-27T04:54:19.537Z,88.00
2019-02-27T04:55:19.686Z,84.00
2019-02-27T04:56:23.105Z,82.70
2019-02-27T04:57:20.225Z,83.20
2019-02-27T04:58:20.465Z,84.60
2019-02-27T04:59:20.771Z,86.40
2019-02-27T05:00:21.002Z,82.10
2019-02-27T05:01:21.285Z,81.70
2019-02-27T05:02:21.606Z,81.40
2019-02-27T05:03:21.773Z,82.30
2019-02-27T05:04:22.037Z,80.20
2019-02-27T05:05:22.300Z,81.40
2019-02-27T05:06:22.583Z,81.80
2019-02-27T05:07:22.831Z,82.90
2019-02-27T05:08:26.925Z,79.20
2019-02-27T05:09:23.357Z,78.60
2019-02-27T05:10:23.639Z,78.40
2019-02-27T05:11:23.869Z,77.70
2019-02-27T05:12:24.130Z,79.70
2019-02-27T05:13:24.393Z,77.80
2019-02-27T05:14:24.789Z,77.00
2019-02-27T05:15:24.913Z,78.80
2019-02-27T05:16:25.179Z,78.20
2019-02-27T05:17:25.454Z,77.50
2019-02-27T05:18:29.240Z,76.30
2019-02-27T05:19:26.084Z,76.90
2019-02-27T05:20:26.204Z,73.30
2019-02-27T05:21:26.484Z,77.50
2019-02-27T05:22:27.323Z,75.20
2019-02-27T05:23:27.006Z,75.10
2019-02-27T05:24:27.284Z,72.60
2019-02-27T05:25:27.526Z,73.60
2019-02-27T05:26:27.845Z,75.70
2019-02-27T05:27:28.188Z,72.00
2019-02-27T05:28:28.313Z,74.10
2019-02-27T05:29:28.595Z,71.20
2019-02-27T05:30:28.836Z,71.70
2019-02-27T05:31:29.093Z,73.10
2019-02-27T05:32:29.385Z,71.10
2019-02-27T05:33:35.638Z,70.40
2019-02-27T05:34:30.928Z,73.30
2019-02-27T05:35:30.261Z,70.60
2019-02-27T05:36:31.621Z,72.60
2019-02-27T05:37:30.705Z,69.40
2019-02-27T05:38:30.963Z,68.70
2019-02-27T05:39:31.240Z,71.70
2019-02-27T05:40:31.488Z,73.10
2019-02-27T05:41:32.911Z,73.10
2019-02-27T05:42:32.044Z,75.20
2019-02-27T05:43:32.302Z,73.30
2019-02-27T05:44:32.530Z,73.10
2019-02-27T05:45:32.785Z,73.10
2019-02-27T05:46:33.050Z,69.90
2019-02-27T05:47:33.359Z,73.10
2019-02-27T05:48:33.562Z,75.20
2019-02-27T05:49:33.824Z,74.90
2019-02-27T05:50:34.274Z,75.40
2019-02-27T05:51:34.435Z,75.40
2019-02-27T05:52:34.736Z,72.90
2019-02-27T05:53:34.893Z,72.30
2019-02-27T05:54:35.173Z,72.50
2019-02-27T05:55:39.048Z,75.50
2019-02-27T05:56:35.680Z,73.00
2019-02-27T05:57:35.973Z,79.50
2019-02-27T05:58:36.230Z,76.40
2019-02-27T05:59:36.495Z,83.30
2019-02-27T06:00:37.001Z,72.80
2019-02-27T06:01:38.139Z,75.20
2019-02-27T06:02:37.270Z,71.60
2019-02-27T06:03:37.491Z,72.90
2019-02-27T06:04:37.769Z,71.30
2019-02-27T06:05:38.010Z,77.80
2019-02-27T06:06:38.260Z,69.80
2019-02-27T06:07:38.549Z,74.20
2019-02-27T06:08:38.869Z,74.50
2019-02-27T06:09:41.368Z,74.40
2019-02-27T06:10:39.293Z,75.10
2019-02-27T06:11:39.575Z,70.60
2019-02-27T06:12:40.715Z,72.60
2019-02-27T06:13:40.121Z,72.70
2019-02-27T06:14:40.388Z,72.60
2019-02-27T06:15:40.629Z,73.00
2019-02-27T06:16:41.037Z,68.10
2019-02-27T06:17:43.354Z,69.20
2019-02-27T06:18:41.410Z,71.30
2019-02-27T06:19:41.677Z,69.80
2019-02-27T06:20:42.547Z,70.80
2019-02-27T06:21:42.180Z,66.60
2019-02-27T06:22:42.457Z,68.70
2019-02-27T06:23:42.696Z,70.80
2019-02-27T06:24:45.507Z,69.50
2019-02-27T06:25:43.208Z,66.40
2019-02-27T06:26:43.473Z,67.90
2019-02-27T06:27:43.748Z,68.40
2019-02-27T06:28:43.992Z,67.60
2019-02-27T06:29:44.260Z,67.10
2019-02-27T06:30:44.517Z,68.90
2019-02-27T06:31:44.774Z,65.80
2019-02-27T06:32:45.111Z,66.80
2019-02-27T06:33:45.855Z,66.60
2019-02-27T06:34:45.567Z,65.00
2019-02-27T06:35:45.820Z,64.70
2019-02-27T06:36:46.082Z,66.60
2019-02-27T06:37:50.325Z,64.60
2019-02-27T06:38:46.625Z,65.90
2019-02-27T06:39:46.877Z,66.40
2019-02-27T06:40:47.124Z,65.20
2019-02-27T06:41:49.712Z,63.00
2019-02-27T06:42:47.666Z,62.80
2019-02-27T06:43:47.915Z,63.70
2019-02-27T06:44:48.151Z,63.70
2019-02-27T06:45:48.445Z,62.10
2019-02-27T06:46:51.132Z,66.40
2019-02-27T06:47:48.987Z,64.20
2019-02-27T06:48:49.242Z,62.60
2019-02-27T06:49:51.833Z,63.10
2019-02-27T06:50:49.770Z,63.40
2019-02-27T06:51:50.026Z,61.60
2019-02-27T06:52:50.311Z,63.00
2019-02-27T06:53:50.562Z,60.10
2019-02-27T06:54:52.290Z,62.70
2019-02-27T06:55:51.076Z,62.40
2019-02-27T06:56:51.337Z,63.00
2019-02-27T06:57:51.726Z,61.90
2019-02-27T06:58:55.201Z,58.10
2019-02-27T06:59:52.061Z,59.90
2019-02-27T07:00:52.315Z,59.80
2019-02-27T07:01:52.570Z,57.80
2019-02-27T07:02:55.268Z,59.70
2019-02-27T07:03:53.105Z,60.70
2019-02-27T07:04:53.338Z,59.60
2019-02-27T07:05:53.873Z,58.70
2019-02-27T07:06:55.352Z,58.70
2019-02-27T07:07:54.177Z,57.80
2019-02-27T07:08:54.435Z,58.20
2019-02-27T07:09:54.683Z,59.60
2019-02-27T07:10:57.497Z,58.80
2019-02-27T07:11:55.200Z,60.50
2019-02-27T07:12:55.495Z,58.50
2019-02-27T07:13:55.791Z,59.20
2019-02-27T07:14:56.040Z,58.10
2019-02-27T07:15:56.274Z,57.20
2019-02-27T07:16:57.357Z,56.80
2019-02-27T07:17:56.830Z,56.60
2019-02-27T07:18:57.079Z,58.60
2019-02-27T07:19:57.320Z,56.60
2019-02-27T07:20:58.315Z,55.10
2019-02-27T07:21:57.848Z,56.40
2019-02-27T07:22:58.208Z,55.00
2019-02-27T07:23:58.656Z,54.80
2019-02-27T07:24:58.625Z,55.00
2019-02-27T07:25:58.907Z,54.90
2019-02-27T07:26:59.137Z,56.60
2019-02-27T07:27:59.402Z,55.60
2019-02-27T07:28:59.681Z,56.30
2019-02-27T07:29:59.946Z,56.50
2019-02-27T07:31:00.334Z,55.60
2019-02-27T07:32:00.454Z,54.90
2019-02-27T07:33:00.711Z,55.60
2019-02-27T07:34:00.993Z,55.60
2019-02-27T07:35:01.255Z,55.30
2019-02-27T07:36:03.569Z,56.10
2019-02-27T07:37:01.773Z,57.00
2019-02-27T07:38:02.051Z,54.70
2019-02-27T07:39:02.339Z,55.50
2019-02-27T07:40:02.539Z,53.90
2019-02-27T07:41:02.821Z,55.30
2019-02-27T07:42:03.063Z,53.10
2019-02-27T07:43:05.706Z,53.70
2019-02-27T07:44:03.603Z,54.20
2019-02-27T07:45:03.841Z,53.50
2019-02-27T07:46:04.123Z,54.00
2019-02-27T07:47:04.440Z,54.60
2019-02-27T07:48:04.618Z,53.00
2019-02-27T07:49:04.902Z,54.00
2019-02-27T07:50:06.197Z,53.60
2019-02-27T07:51:05.420Z,52.70
2019-02-27T07:52:05.676Z,54.00
2019-02-27T07:53:05.939Z,52.70
2019-02-27T07:54:06.245Z,51.30
2019-02-27T07:55:18.638Z,52.60
2019-02-27T07:56:07.798Z,53.20
2019-02-27T07:57:07.000Z,53.90
2019-02-27T07:58:07.259Z,52.80
2019-02-27T07:59:07.552Z,53.20
2019-02-27T08:00:07.770Z,51.40
2019-02-27T08:01:08.057Z,51.00
2019-02-27T08:02:08.283Z,52.00
2019-02-27T08:03:09.436Z,50.40
2019-02-27T08:04:08.992Z,52.30
2019-02-27T08:05:09.085Z,50.90
2019-02-27T08:06:09.590Z,50.40
2019-02-27T08:07:10.046Z,51.30
2019-02-27T08:08:09.861Z,49.00
2019-02-27T08:09:10.143Z,49.30
2019-02-27T08:10:10.595Z,46.40
2019-02-27T08:11:13.414Z,48.40
2019-02-27T08:12:10.988Z,49.90
2019-02-27T08:13:11.157Z,47.70
2019-02-27T08:14:12.896Z,50.20
2019-02-27T08:15:13.455Z,49.20
2019-02-27T08:16:11.960Z,47.80
2019-02-27T08:17:17.672Z,50.00
2019-02-27T08:18:13.525Z,50.70
2019-02-27T08:19:12.737Z,48.50
2019-02-27T08:20:13.046Z,45.80
2019-02-27T08:21:13.279Z,45.80
2019-02-27T08:22:13.513Z,45.40
2019-02-27T08:23:15.474Z,46.50
2019-02-27T08:24:14.445Z,43.40
2019-02-27T08:25:14.289Z,46.70
2019-02-27T08:26:14.580Z,42.80
2019-02-27T08:27:14.823Z,45.20
2019-02-27T08:28:15.146Z,45.20
2019-02-27T08:29:15.364Z,45.10
2019-02-27T08:30:15.600Z,45.10
2019-02-27T08:31:15.879Z,44.80
2019-02-27T08:32:16.128Z,45.30
2019-02-27T08:33:16.395Z,44.20
2019-02-27T08:34:16.673Z,44.20
2019-02-27T08:35:16.931Z,42.00
2019-02-27T08:36:17.208Z,41.60
2019-02-27T08:37:17.536Z,41.70
2019-02-27T08:38:17.697Z,46.80
2019-02-27T08:39:17.991Z,41.50
2019-02-27T08:40:18.226Z,42.00
2019-02-27T08:41:18.481Z,41.90
2019-02-27T08:42:18.738Z,39.50
2019-02-27T08:43:19.000Z,42.80
2019-02-27T08:44:19.284Z,40.90
2019-02-27T08:45:20.490Z,41.30
2019-02-27T08:46:19.786Z,41.00
2019-02-27T08:47:20.043Z,41.50
2019-02-27T08:48:20.304Z,43.90
2019-02-27T08:49:24.024Z,40.70
2019-02-27T08:50:20.837Z,37.90
2019-02-27T08:51:21.095Z,37.60
2019-02-27T08:52:21.327Z,38.80
2019-02-27T08:53:25.838Z,39.10
2019-02-27T08:54:22.875Z,39.60
2019-02-27T08:55:22.638Z,38.30
2019-02-27T08:56:22.383Z,41.00
2019-02-27T08:57:22.635Z,37.10
2019-02-27T08:58:22.919Z,39.30
2019-02-27T08:59:23.196Z,38.60
2019-02-27T09:00:23.520Z,35.40
2019-02-27T09:01:23.752Z,39.70
2019-02-27T09:02:24.159Z,42.90
2019-02-27T09:03:24.214Z,37.90
2019-02-27T09:04:24.504Z,39.20
2019-02-27T09:05:24.771Z,42.40
2019-02-27T09:06:27.340Z,35.20
2019-02-27T09:07:25.281Z,37.50
2019-02-27T09:08:25.529Z,33.40
2019-02-27T09:09:25.823Z,36.80
2019-02-27T09:10:26.855Z,35.70
2019-02-27T09:11:26.312Z,42.30
2019-02-27T09:12:26.593Z,37.60
2019-02-27T09:13:26.832Z,38.30
2019-02-27T09:14:27.110Z,34.70
2019-02-27T09:15:27.341Z,33.80
2019-02-27T09:16:27.623Z,33.50
2019-02-27T09:17:27.949Z,31.90
2019-02-27T09:18:28.253Z,32.40
2019-02-27T09:19:28.400Z,31.60
2019-02-27T09:20:28.656Z,41.80
2019-02-27T09:21:28.950Z,41.30
2019-02-27T09:22:29.216Z,39.20
2019-02-27T09:23:29.455Z,34.10
2019-02-27T09:24:29.733Z,35.30
2019-02-27T09:25:29.985Z,31.80
2019-02-27T09:26:30.306Z,36.70
2019-02-27T09:27:33.024Z,32.40
2019-02-27T09:28:30.758Z,32.60
2019-02-27T09:29:31.037Z,32.20
2019-02-27T09:30:31.266Z,32.20
2019-02-27T09:31:31.541Z,30.60
2019-02-27T09:32:31.817Z,32.60
2019-02-27T09:33:38.581Z,31.70
2019-02-27T09:34:33.450Z,30.20
2019-02-27T09:35:34.501Z,29.70
2019-02-27T09:36:33.850Z,30.30
2019-02-27T09:37:33.125Z,30.70
2019-02-27T09:38:33.365Z,29.50
2019-02-27T09:39:35.038Z,29.10
2019-02-27T09:40:38.152Z,28.10
2019-02-27T09:41:34.140Z,28.10
2019-02-27T09:42:34.445Z,27.60
2019-02-27T09:43:34.667Z,28.50
2019-02-27T09:44:36.544Z,27.80
2019-02-27T09:45:35.370Z,27.00
2019-02-27T09:46:35.443Z,27.30
2019-02-27T09:47:35.695Z,27.60
2019-02-27T09:48:35.951Z,27.20
2019-02-27T09:49:37.907Z,27.90
2019-02-27T09:50:36.524Z,28.30
2019-02-27T09:51:36.792Z,26.40
2019-02-27T09:52:37.013Z,26.80
2019-02-27T09:53:37.471Z,27.10
2019-02-27T09:54:37.538Z,27.90
2019-02-27T09:55:37.786Z,27.10
2019-02-27T09:56:38.052Z,27.40
2019-02-27T09:57:38.316Z,27.40
2019-02-27T09:58:38.576Z,26.70
2019-02-27T09:59:39.987Z,25.80
2019-02-27T10:00:39.110Z,26.30
2019-02-27T10:01:39.365Z,25.10
2019-02-27T10:02:39.645Z,25.40
2019-02-27T10:03:39.883Z,25.80
2019-02-27T10:04:40.177Z,26.20
2019-02-27T10:05:40.885Z,26.60
2019-02-27T10:06:42.749Z,26.30
2019-02-27T10:07:41.075Z,27.00
2019-02-27T10:08:41.185Z,26.30
2019-02-27T10:09:41.458Z,26.20
2019-02-27T10:10:44.853Z,24.50
2019-02-27T10:11:42.046Z,24.10
2019-02-27T10:12:42.372Z,24.90
2019-02-27T10:13:42.507Z,24.00
2019-02-27T10:14:42.754Z,24.30
2019-02-27T10:15:43.096Z,26.20
2019-02-27T10:16:43.301Z,24.20
2019-02-27T10:17:43.781Z,24.40
2019-02-27T10:18:43.816Z,24.90
2019-02-27T10:19:44.075Z,25.20
2019-02-27T10:20:44.357Z,23.60
2019-02-27T10:21:45.288Z,25.00
2019-02-27T10:22:44.890Z,24.50
2019-02-27T10:23:45.193Z,24.80
2019-02-27T10:24:45.375Z,24.60
2019-02-27T10:25:45.678Z,25.00
2019-02-27T10:26:45.885Z,23.20
2019-02-27T10:27:47.271Z,24.50
2019-02-27T10:28:46.440Z,24.70
2019-02-27T10:29:47.960Z,24.40
2019-02-27T10:30:49.858Z,26.80
2019-02-27T10:31:47.273Z,24.70
2019-02-27T10:32:47.540Z,25.10
2019-02-27T10:33:47.714Z,25.60
2019-02-27T10:34:51.039Z,24.10
2019-02-27T10:35:49.273Z,23.50
2019-02-27T10:36:48.633Z,23.80
2019-02-27T10:37:50.433Z,22.90
2019-02-27T10:38:49.033Z,23.10
2019-02-27T10:39:49.325Z,23.70
2019-02-27T10:40:49.712Z,24.10
2019-02-27T10:41:50.602Z,22.70
2019-02-27T10:42:50.273Z,21.80
2019-02-27T10:43:50.354Z,21.70
2019-02-27T10:44:50.608Z,21.00
2019-02-27T10:45:50.913Z,21.00
2019-02-27T10:46:52.053Z,19.80
2019-02-27T10:47:51.412Z,20.80
2019-02-27T10:48:51.777Z,22.00
2019-02-27T10:49:51.911Z,23.30
2019-02-27T10:50:52.202Z,21.20
2019-02-27T10:51:52.431Z,22.20
2019-02-27T10:52:52.711Z,21.90
2019-02-27T10:53:52.937Z,20.70
2019-02-27T10:54:53.219Z,22.50
2019-02-27T10:55:53.510Z,22.00
2019-02-27T10:56:56.391Z,20.00
2019-02-27T10:57:53.994Z,19.80
2019-02-27T10:58:54.244Z,19.90
2019-02-27T10:59:54.493Z,19.90
2019-02-27T11:00:54.802Z,19.10
2019-02-27T11:01:55.028Z,18.90
2019-02-27T11:02:55.286Z,19.40
2019-02-27T11:03:55.547Z,19.70
2019-02-27T11:04:55.855Z,19.40
2019-02-27T11:05:56.055Z,19.50
2019-02-27T11:06:56.315Z,19.70
2019-02-27T11:07:56.584Z,19.10
2019-02-27T11:08:56.871Z,18.60
2019-02-27T11:09:57.118Z,18.70
2019-02-27T11:10:57.405Z,18.60
2019-02-27T11:11:57.634Z,18.30
2019-02-27T11:12:57.944Z,18.30
2019-02-27T11:13:58.262Z,19.00
2019-02-27T11:14:58.428Z,19.30
2019-02-27T11:15:58.690Z,17.90
2019-02-27T11:17:02.165Z,18.90
2019-02-27T11:18:04.199Z,18.40
2019-02-27T11:19:00.497Z,18.40
2019-02-27T11:19:59.738Z,18.00
2019-02-27T11:21:00.048Z,19.70
2019-02-27T11:22:00.389Z,16.80
2019-02-27T11:23:00.519Z,16.20
2019-02-27T11:24:01.018Z,16.30
2019-02-27T11:25:01.029Z,17.20
2019-02-27T11:26:01.327Z,17.70
2019-02-27T11:27:03.373Z,16.60
2019-02-27T11:28:01.828Z,16.90
2019-02-27T11:29:02.114Z,16.70
2019-02-27T11:30:03.012Z,16.80
2019-02-27T11:31:02.608Z,16.20
2019-02-27T11:32:02.862Z,15.00
2019-02-27T11:33:03.116Z,15.50
2019-02-27T11:34:05.124Z,15.80
2019-02-27T11:35:03.641Z,15.30
2019-02-27T11:36:05.598Z,15.00
2019-02-27T11:37:04.295Z,16.00
2019-02-27T11:38:04.446Z,15.50
2019-02-27T11:39:04.755Z,15.70
2019-02-27T11:40:05.375Z,15.70
2019-02-27T11:41:05.219Z,15.50
2019-02-27T11:42:05.461Z,16.10
2019-02-27T11:43:06.993Z,15.80
2019-02-27T11:44:05.996Z,15.00
2019-02-27T11:45:06.221Z,14.60
2019-02-27T11:46:06.570Z,14.40
2019-02-27T11:47:10.829Z,15.30
2019-02-27T11:48:07.056Z,14.50
2019-02-27T11:49:07.318Z,15.90
2019-02-27T11:50:07.547Z,15.60
2019-02-27T11:51:07.844Z,15.50
2019-02-27T11:52:08.083Z,15.40
2019-02-27T11:53:08.344Z,14.90
2019-02-27T11:54:09.173Z,14.80
2019-02-27T11:55:08.986Z,14.60
2019-02-27T11:56:09.156Z,14.40
2019-02-27T11:57:09.408Z,14.70
2019-02-27T11:58:09.673Z,15.50
2019-02-27T11:59:10.263Z,14.40
2019-02-27T12:00:10.185Z,15.20
2019-02-27T12:01:12.040Z,16.00
2019-02-27T12:02:10.696Z,16.20
2019-02-27T12:03:11.933Z,15.40
2019-02-27T12:04:11.239Z,16.10
2019-02-27T12:05:11.483Z,16.00
2019-02-27T12:06:11.747Z,16.80
2019-02-27T12:07:12.246Z,16.50
2019-02-27T12:08:12.276Z,17.10
2019-02-27T12:09:12.555Z,16.20
2019-02-27T12:10:12.801Z,16.60
2019-02-27T12:11:14.089Z,16.50
2019-02-27T12:12:13.299Z,16.80
2019-02-27T12:13:13.591Z,14.80
2019-02-27T12:14:13.865Z,14.90
2019-02-27T12:15:14.114Z,14.70
2019-02-27T12:16:15.248Z,16.30
2019-02-27T12:17:14.644Z,14.70
2019-02-27T12:18:14.895Z,14.60
2019-02-27T12:19:15.242Z,15.40
2019-02-27T12:20:18.049Z,16.50
2019-02-27T12:21:15.706Z,16.10
2019-02-27T12:22:15.962Z,17.10
2019-02-27T12:23:16.207Z,16.60
2019-02-27T12:24:18.941Z,16.50
2019-02-27T12:25:16.727Z,16.20
2019-02-27T12:26:17.008Z,16.00
2019-02-27T12:27:24.483Z,15.10
2019-02-27T12:28:18.548Z,15.60
2019-02-27T12:29:17.784Z,13.70
2019-02-27T12:30:18.026Z,14.30
2019-02-27T12:31:18.313Z,13.90
2019-02-27T12:32:19.420Z,13.30
2019-02-27T12:33:18.825Z,12.80
2019-02-27T12:34:19.112Z,14.10
2019-02-27T12:35:19.383Z,14.00
2019-02-27T12:36:19.701Z,12.50
2019-02-27T12:37:27.788Z,12.90
2019-02-27T12:38:21.129Z,12.20
2019-02-27T12:39:20.424Z,13.50
2019-02-27T12:40:24.035Z,12.90
2019-02-27T12:41:20.898Z,12.40
2019-02-27T12:42:21.206Z,12.30
2019-02-27T12:43:21.429Z,12.90
2019-02-27T12:44:21.824Z,13.30
2019-02-27T12:45:22.032Z,13.20
2019-02-27T12:46:22.268Z,13.20
2019-02-27T12:47:22.530Z,12.40
2019-02-27T12:48:22.751Z,12.80
2019-02-27T12:49:23.047Z,13.80
2019-02-27T12:50:23.288Z,13.50
2019-02-27T12:51:23.529Z,12.90
2019-02-27T12:52:23.871Z,14.00
2019-02-27T12:53:24.063Z,14.40
2019-02-27T12:54:26.757Z,13.20
2019-02-27T12:55:24.593Z,12.90